createdAt,value
2018-03-17T00:00:00.013Z,20.14
2018-03-17T00:01:09.751Z,20.11
2018-03-17T00:02:18.940Z,20.06
2018-03-17T00:03:27.866Z,20.13
2018-03-17T00:04:37.397Z,20.1
2018-03-17T00:05:46.344Z,20.18
2018-03-17T00:06:55.522Z,20.13
2018-03-17T00:08:04.442Z,20.11
2018-03-17T00:09:13.426Z,20.06
2018-03-17T00:10:22.694Z,20.11
2018-03-17T00:11:32.183Z,20.11
2018-03-17T00:12:41.080Z,20.16
2018-03-17T00:13:50.259Z,20.1
2018-03-17T00:14:59.162Z,20.08
2018-03-17T00:16:08.335Z,20.13
2018-03-17T00:17:17.303Z,20.14
2018-03-17T00:18:26.230Z,20.08
2018-03-17T00:19:35.898Z,20.13
2018-03-17T00:20:44.814Z,20.06
2018-03-17T00:21:54.267Z,20.05
2018-03-17T00:23:03.684Z,20.02
2018-03-17T00:24:12.888Z,20.11
2018-03-17T00:25:22.047Z,20.08
2018-03-17T00:26:31.213Z,20.08
2018-03-17T00:27:40.142Z,20.08
2018-03-17T00:28:49.054Z,20.11
2018-03-17T00:29:57.980Z,20.11
2018-03-17T00:31:07.393Z,20.11
2018-03-17T00:32:16.376Z,20.03
2018-03-17T00:33:25.321Z,20.14
2018-03-17T00:34:34.218Z,20.13
2018-03-17T00:35:43.153Z,20.03
2018-03-17T00:36:52.578Z,20.03
2018-03-17T00:38:02.271Z,20.03
2018-03-17T00:39:11.171Z,20.02
2018-03-17T00:40:20.360Z,20.05
2018-03-17T00:41:29.004Z,20.1
2018-03-17T00:42:37.910Z,20.03
2018-03-17T00:43:47.082Z,20.01
2018-03-17T00:44:56.316Z,20.05
2018-03-17T00:46:05.235Z,20.02
2018-03-17T00:47:14.921Z,20.03
2018-03-17T00:48:24.090Z,20.02
2018-03-17T00:49:33.303Z,20.01
2018-03-17T00:50:42.409Z,20.02
2018-03-17T00:51:51.042Z,20.05
2018-03-17T00:53:00.464Z,20.03
2018-03-17T00:54:09.140Z,20.05
2018-03-17T00:55:18.329Z,20.02
2018-03-17T00:56:27.231Z,19.96
2018-03-17T00:57:35.870Z,20.05
2018-03-17T00:58:44.527Z,20.06
2018-03-17T00:59:53.950Z,20.01
2018-03-17T01:01:03.383Z,20.05
2018-03-17T01:02:12.791Z,19.99
2018-03-17T01:03:21.425Z,19.98
2018-03-17T01:04:30.327Z,20.02
2018-03-17T01:05:39.758Z,20.01
2018-03-17T01:06:48.661Z,19.98
2018-03-17T01:07:57.819Z,20.06
2018-03-17T01:09:06.452Z,20.01
2018-03-17T01:10:15.611Z,19.99
2018-03-17T01:11:24.506Z,19.98
2018-03-17T01:12:33.666Z,20.01
2018-03-17T01:13:42.811Z,19.99
2018-03-17T01:14:51.728Z,20.01
2018-03-17T01:16:00.624Z,19.95
2018-03-17T01:17:10.044Z,20.03
2018-03-17T01:18:19.202Z,20.01
2018-03-17T01:19:28.106Z,19.95
2018-03-17T01:20:37.575Z,20.01
2018-03-17T01:21:46.475Z,19.98
2018-03-17T01:22:55.642Z,20.01
2018-03-17T01:24:05.124Z,19.99
2018-03-17T01:25:13.771Z,19.99
2018-03-17T01:26:22.911Z,20.05
2018-03-17T01:27:31.817Z,20.01
2018-03-17T01:28:40.967Z,19.98
2018-03-17T01:29:49.626Z,19.96
2018-03-17T01:30:59.036Z,19.92
2018-03-17T01:32:07.944Z,19.94
2018-03-17T01:33:16.603Z,19.95
2018-03-17T01:34:26.041Z,20.03
2018-03-17T01:35:35.212Z,19.91
2018-03-17T01:36:44.097Z,19.92
2018-03-17T01:37:53.498Z,19.96
2018-03-17T01:39:02.645Z,19.92
2018-03-17T01:40:11.808Z,19.95
2018-03-17T01:41:20.707Z,19.86
2018-03-17T01:42:30.127Z,19.98
2018-03-17T01:43:38.796Z,19.86
2018-03-17T01:44:47.459Z,19.94
2018-03-17T01:45:56.859Z,19.92
2018-03-17T01:47:05.489Z,19.87
2018-03-17T01:48:14.645Z,19.83
2018-03-17T01:49:23.285Z,19.91
2018-03-17T01:50:32.719Z,19.88
2018-03-17T01:51:41.890Z,19.83
2018-03-17T01:52:50.781Z,19.92
2018-03-17T01:53:59.679Z,19.94
2018-03-17T01:55:08.594Z,19.95
2018-03-17T01:56:17.753Z,19.95
2018-03-17T01:57:27.218Z,19.94
2018-03-17T01:58:36.386Z,19.86
2018-03-17T01:59:45.284Z,19.95
2018-03-17T02:00:54.200Z,19.83
2018-03-17T02:02:02.829Z,19.95
2018-03-17T02:03:11.982Z,19.94
2018-03-17T02:04:21.142Z,19.83
2018-03-17T02:05:30.036Z,19.88
2018-03-17T02:06:38.943Z,19.88
2018-03-17T02:07:47.836Z,19.84
2018-03-17T02:08:56.472Z,19.83
2018-03-17T02:10:05.377Z,19.76
2018-03-17T02:11:14.276Z,19.86
2018-03-17T02:12:23.450Z,19.86
2018-03-17T02:13:32.608Z,19.78
2018-03-17T02:14:41.508Z,19.86
2018-03-17T02:15:50.684Z,19.83
2018-03-17T02:16:59.846Z,19.87
2018-03-17T02:18:09.054Z,19.86
2018-03-17T02:19:17.976Z,19.83
2018-03-17T02:20:26.880Z,19.84
2018-03-17T02:21:36.564Z,19.76
2018-03-17T02:22:45.755Z,19.86
2018-03-17T02:23:54.653Z,19.74
2018-03-17T02:25:03.822Z,19.84
2018-03-17T02:26:12.994Z,19.91
2018-03-17T02:27:22.163Z,19.84
2018-03-17T02:28:31.068Z,19.83
2018-03-17T02:29:39.964Z,19.86
2018-03-17T02:30:48.864Z,19.76
2018-03-17T02:31:58.033Z,19.73
2018-03-17T02:33:06.947Z,19.81
2018-03-17T02:34:16.174Z,19.74
2018-03-17T02:35:25.798Z,19.76
2018-03-17T02:36:34.724Z,19.69
2018-03-17T02:37:43.654Z,19.73
2018-03-17T02:38:53.116Z,19.78
2018-03-17T02:40:02.580Z,19.73
2018-03-17T02:41:11.744Z,19.81
2018-03-17T02:42:20.940Z,19.73
2018-03-17T02:43:29.867Z,19.74
2018-03-17T02:44:38.789Z,19.76
2018-03-17T02:45:47.970Z,19.77
2018-03-17T02:46:57.398Z,19.73
2018-03-17T02:48:06.833Z,19.73
2018-03-17T02:49:15.720Z,19.69
2018-03-17T02:50:24.893Z,19.69
2018-03-17T02:51:34.379Z,19.69
2018-03-17T02:52:44.081Z,19.71
2018-03-17T02:53:53.538Z,19.71
2018-03-17T02:55:02.984Z,19.74
2018-03-17T02:56:12.470Z,19.74
2018-03-17T02:57:21.382Z,19.73
2018-03-17T02:58:30.612Z,19.66
2018-03-17T02:59:40.302Z,19.66
2018-03-17T03:00:49.750Z,19.69
2018-03-17T03:01:58.702Z,19.71
2018-03-17T03:03:07.862Z,19.66
2018-03-17T03:04:16.784Z,19.69
2018-03-17T03:05:25.957Z,19.71
2018-03-17T03:06:35.396Z,19.69
2018-03-17T03:07:44.852Z,19.68
2018-03-17T03:08:54.293Z,19.66
2018-03-17T03:10:03.471Z,19.65
2018-03-17T03:11:12.898Z,19.69
2018-03-17T03:12:21.549Z,19.69
2018-03-17T03:13:30.196Z,19.65
2018-03-17T03:14:39.617Z,19.63
2018-03-17T03:15:49.071Z,19.65
2018-03-17T03:16:57.994Z,19.78
2018-03-17T03:18:06.909Z,19.76
2018-03-17T03:19:15.838Z,19.62
2018-03-17T03:20:25.248Z,19.65
2018-03-17T03:21:34.144Z,19.65
2018-03-17T03:22:42.821Z,19.59
2018-03-17T03:23:51.708Z,19.71
2018-03-17T03:25:00.864Z,19.63
2018-03-17T03:26:09.498Z,19.73
2018-03-17T03:27:18.695Z,19.76
2018-03-17T03:28:27.651Z,19.69
2018-03-17T03:29:36.823Z,19.68
2018-03-17T03:30:45.723Z,19.66
2018-03-17T03:31:55.141Z,19.66
2018-03-17T03:33:04.086Z,19.71
2018-03-17T03:34:13.517Z,19.73
2018-03-17T03:35:22.929Z,19.65
2018-03-17T03:36:31.831Z,19.58
2018-03-17T03:37:41.255Z,19.69
2018-03-17T03:38:50.680Z,19.69
2018-03-17T03:39:59.877Z,19.69
2018-03-17T03:41:09.303Z,19.58
2018-03-17T03:42:18.752Z,19.68
2018-03-17T03:43:28.164Z,19.68
2018-03-17T03:44:37.820Z,19.73
2018-03-17T03:45:47.241Z,19.68
2018-03-17T03:46:56.150Z,19.69
2018-03-17T03:48:05.303Z,19.63
2018-03-17T03:49:15.024Z,19.63
2018-03-17T03:50:24.438Z,19.65
2018-03-17T03:51:33.388Z,19.58
2018-03-17T03:52:42.285Z,19.69
2018-03-17T03:53:51.203Z,19.69
2018-03-17T03:55:00.624Z,19.62
2018-03-17T03:56:10.303Z,19.59
2018-03-17T03:57:19.204Z,19.56
2018-03-17T03:58:28.154Z,19.54
2018-03-17T03:59:37.057Z,19.5
2018-03-17T04:00:45.965Z,19.59
2018-03-17T04:01:55.112Z,19.61
2018-03-17T04:03:03.745Z,19.63
2018-03-17T04:04:12.685Z,19.59
2018-03-17T04:05:22.117Z,19.56
2018-03-17T04:06:31.044Z,19.54
2018-03-17T04:07:40.191Z,19.58
2018-03-17T04:08:49.098Z,19.56
2018-03-17T04:09:58.783Z,19.59
2018-03-17T04:11:07.953Z,19.62
2018-03-17T04:12:17.408Z,19.56
2018-03-17T04:13:26.850Z,19.56
2018-03-17T04:14:35.764Z,19.58
2018-03-17T04:15:44.664Z,19.58
2018-03-17T04:16:53.318Z,19.58
2018-03-17T04:18:02.231Z,19.54
2018-03-17T04:19:11.402Z,19.58
2018-03-17T04:20:20.304Z,19.58
2018-03-17T04:21:29.487Z,19.5
2018-03-17T04:22:38.128Z,19.56
2018-03-17T04:23:47.281Z,19.55
2018-03-17T04:24:56.458Z,19.55
2018-03-17T04:26:05.627Z,19.47
2018-03-17T04:27:14.791Z,19.56
2018-03-17T04:28:23.703Z,19.55
2018-03-17T04:29:32.921Z,19.56
2018-03-17T04:30:41.600Z,19.58
2018-03-17T04:31:50.795Z,19.56
2018-03-17T04:32:59.451Z,19.58
2018-03-17T04:34:08.115Z,19.48
2018-03-17T04:35:17.315Z,19.51
2018-03-17T04:36:26.240Z,19.48
2018-03-17T04:37:35.393Z,19.55
2018-03-17T04:38:44.814Z,19.43
2018-03-17T04:39:54.245Z,19.51
2018-03-17T04:41:03.162Z,19.56
2018-03-17T04:42:12.592Z,19.43
2018-03-17T04:43:21.827Z,19.44
2018-03-17T04:44:30.762Z,19.51
2018-03-17T04:45:39.655Z,19.46
2018-03-17T04:46:48.820Z,19.54
2018-03-17T04:47:57.733Z,19.46
2018-03-17T04:49:06.900Z,19.46
2018-03-17T04:50:15.799Z,19.4
2018-03-17T04:51:24.706Z,19.48
2018-03-17T04:52:33.608Z,19.47
2018-03-17T04:53:42.760Z,19.46
2018-03-17T04:54:51.673Z,19.47
2018-03-17T04:56:01.082Z,19.48
2018-03-17T04:57:10.257Z,19.44
2018-03-17T04:58:18.900Z,19.47
2018-03-17T04:59:28.068Z,19.51
2018-03-17T05:00:37.228Z,19.48
2018-03-17T05:01:46.657Z,19.5
2018-03-17T05:02:55.566Z,19.5
2018-03-17T05:04:05.055Z,19.47
2018-03-17T05:05:13.988Z,19.41
2018-03-17T05:06:22.951Z,19.48
2018-03-17T05:07:31.850Z,19.5
2018-03-17T05:08:41.003Z,19.32
2018-03-17T05:09:49.897Z,19.36
2018-03-17T05:10:59.341Z,19.48
2018-03-17T05:12:08.515Z,19.44
2018-03-17T05:13:17.694Z,19.44
2018-03-17T05:14:26.603Z,19.4
2018-03-17T05:15:35.771Z,19.32
2018-03-17T05:16:44.695Z,19.43
2018-03-17T05:17:54.107Z,19.37
2018-03-17T05:19:03.011Z,19.39
2018-03-17T05:20:12.201Z,19.36
2018-03-17T05:21:21.089Z,19.47
2018-03-17T05:22:29.771Z,19.39
2018-03-17T05:23:38.665Z,19.37
2018-03-17T05:24:47.586Z,19.32
2018-03-17T05:25:56.241Z,19.39
2018-03-17T05:27:05.391Z,19.31
2018-03-17T05:28:14.817Z,19.31
2018-03-17T05:29:23.714Z,19.36
2018-03-17T05:30:32.884Z,19.28
2018-03-17T05:31:42.068Z,19.31
2018-03-17T05:32:51.055Z,19.32
2018-03-17T05:34:00.464Z,19.32
2018-03-17T05:35:09.104Z,19.33
2018-03-17T05:36:17.996Z,19.33
2018-03-17T05:37:26.903Z,19.4
2018-03-17T05:38:36.593Z,19.4
2018-03-17T05:39:45.761Z,19.37
2018-03-17T05:40:54.675Z,19.32
2018-03-17T05:42:03.827Z,19.31
2018-03-17T05:43:12.996Z,19.32
2018-03-17T05:44:21.949Z,19.29
2018-03-17T05:45:31.123Z,19.32
2018-03-17T05:46:40.024Z,19.28
2018-03-17T05:47:49.447Z,19.28
2018-03-17T05:48:58.341Z,19.26
2018-03-17T05:50:06.987Z,19.26
2018-03-17T05:51:15.939Z,19.23
2018-03-17T05:52:24.581Z,19.31
2018-03-17T05:53:33.746Z,19.28
2018-03-17T05:54:43.192Z,19.32
2018-03-17T05:55:51.836Z,19.21
2018-03-17T05:57:01.009Z,19.25
2018-03-17T05:58:10.178Z,19.26
2018-03-17T05:59:19.093Z,19.25
2018-03-17T06:00:28.034Z,19.29
2018-03-17T06:01:37.191Z,19.33
2018-03-17T06:02:46.434Z,19.32
2018-03-17T06:03:55.062Z,19.21
2018-03-17T06:05:04.236Z,19.28
2018-03-17T06:06:13.136Z,19.23
2018-03-17T06:07:22.298Z,19.26
2018-03-17T06:08:31.241Z,19.28
2018-03-17T06:09:40.441Z,19.23
2018-03-17T06:10:49.330Z,19.26
2018-03-17T06:11:58.778Z,19.23
2018-03-17T06:13:07.387Z,19.26
2018-03-17T06:14:17.081Z,19.31
2018-03-17T06:15:25.985Z,19.31
2018-03-17T06:16:35.151Z,19.23
2018-03-17T06:17:44.108Z,19.26
2018-03-17T06:18:53.004Z,19.26
2018-03-17T06:20:01.649Z,19.26
2018-03-17T06:21:10.840Z,19.28
2018-03-17T06:22:19.799Z,19.28
2018-03-17T06:23:29.216Z,19.29
2018-03-17T06:24:38.645Z,19.28
2018-03-17T06:25:47.571Z,19.28
2018-03-17T06:26:56.522Z,19.26
2018-03-17T06:28:05.188Z,19.23
2018-03-17T06:29:14.613Z,19.31
2018-03-17T06:30:23.813Z,19.29
2018-03-17T06:31:32.727Z,19.29
2018-03-17T06:32:41.908Z,19.28
2018-03-17T06:33:51.065Z,19.22
2018-03-17T06:35:00.734Z,19.28
2018-03-17T06:36:10.146Z,19.26
2018-03-17T06:37:18.818Z,19.25
2018-03-17T06:38:28.221Z,19.26
2018-03-17T06:39:37.146Z,19.25
2018-03-17T06:40:46.308Z,19.23
2018-03-17T06:41:55.730Z,19.26
2018-03-17T06:43:04.631Z,19.22
2018-03-17T06:44:14.097Z,19.23
2018-03-17T06:45:22.993Z,19.28
2018-03-17T06:46:32.161Z,19.26
2018-03-17T06:47:41.054Z,19.26
2018-03-17T06:48:49.953Z,19.29
2018-03-17T06:49:58.927Z,19.29
2018-03-17T06:51:08.141Z,19.32
2018-03-17T06:52:17.046Z,19.32
2018-03-17T06:53:25.956Z,19.32
2018-03-17T06:54:35.391Z,19.31
2018-03-17T06:55:44.025Z,19.23
2018-03-17T06:56:52.914Z,19.32
2018-03-17T06:58:01.561Z,19.29
2018-03-17T06:59:10.733Z,19.28
2018-03-17T07:00:19.376Z,19.25
2018-03-17T07:01:28.783Z,19.29
2018-03-17T07:02:37.937Z,19.29
2018-03-17T07:03:46.875Z,19.29
2018-03-17T07:04:56.293Z,19.29
2018-03-17T07:06:05.192Z,19.22
2018-03-17T07:07:13.835Z,19.23
2018-03-17T07:08:22.986Z,19.25
2018-03-17T07:09:32.142Z,19.26
2018-03-17T07:10:41.300Z,19.26
2018-03-17T07:11:50.456Z,19.26
2018-03-17T07:12:59.363Z,19.19
2018-03-17T07:14:08.540Z,19.26
2018-03-17T07:15:17.689Z,19.22
2018-03-17T07:16:27.120Z,19.26
2018-03-17T07:17:36.050Z,19.23
2018-03-17T07:18:44.989Z,19.32
2018-03-17T07:19:53.956Z,19.28
2018-03-17T07:21:03.393Z,19.23
2018-03-17T07:22:12.821Z,19.26
2018-03-17T07:23:22.257Z,19.22
2018-03-17T07:24:31.206Z,19.28
2018-03-17T07:25:40.159Z,19.22
2018-03-17T07:26:49.031Z,19.23
2018-03-17T07:27:57.963Z,19.26
2018-03-17T07:29:06.872Z,19.25
2018-03-17T07:30:15.511Z,19.29
2018-03-17T07:31:24.682Z,19.19
2018-03-17T07:32:33.601Z,19.19
2018-03-17T07:33:42.756Z,19.29
2018-03-17T07:34:52.196Z,19.25
2018-03-17T07:36:01.132Z,19.28
2018-03-17T07:37:10.306Z,19.28
2018-03-17T07:38:19.457Z,19.31
2018-03-17T07:39:28.616Z,19.28
2018-03-17T07:40:38.049Z,19.29
2018-03-17T07:41:47.199Z,19.37
2018-03-17T07:42:56.612Z,19.43
2018-03-17T07:44:05.353Z,19.33
2018-03-17T07:45:14.531Z,19.48
2018-03-17T07:46:23.814Z,19.4
2018-03-17T07:47:33.244Z,19.48
2018-03-17T07:48:42.162Z,19.48
2018-03-17T07:49:51.055Z,19.59
2018-03-17T07:50:59.989Z,19.66
2018-03-17T07:52:09.176Z,19.65
2018-03-17T07:53:18.638Z,19.74
2018-03-17T07:54:27.273Z,19.76
2018-03-17T07:55:36.446Z,19.83
2018-03-17T07:56:45.374Z,19.86
2018-03-17T07:57:54.066Z,19.98
2018-03-17T07:59:03.221Z,20.02
2018-03-17T08:00:11.876Z,20.14
2018-03-17T08:01:20.524Z,20.23
2018-03-17T08:02:29.425Z,20.16
2018-03-17T08:03:38.084Z,20.26
2018-03-17T08:04:47.044Z,20.33
2018-03-17T08:05:56.550Z,20.36
2018-03-17T08:07:05.464Z,20.41
2018-03-17T08:08:14.635Z,20.55
2018-03-17T08:09:23.860Z,20.52
2018-03-17T08:10:33.047Z,20.59
2018-03-17T08:11:42.285Z,20.7
2018-03-17T08:12:51.756Z,20.64
2018-03-17T08:14:00.922Z,20.67
2018-03-17T08:15:09.577Z,20.8
2018-03-17T08:16:18.491Z,20.76
2018-03-17T08:17:27.657Z,20.8
2018-03-17T08:18:36.842Z,20.84
2018-03-17T08:19:45.782Z,20.88
2018-03-17T08:20:55.142Z,20.94
2018-03-17T08:22:04.350Z,21.03
2018-03-17T08:23:13.525Z,20.99
2018-03-17T08:24:22.443Z,21.06
2018-03-17T08:25:31.358Z,21.06
2018-03-17T08:26:40.004Z,21.03
2018-03-17T08:27:49.186Z,21.12
2018-03-17T08:28:58.642Z,21.12
2018-03-17T08:30:08.906Z,21.16
2018-03-17T08:31:18.349Z,21.16
2018-03-17T08:32:27.771Z,21.22
2018-03-17T08:33:37.184Z,21.24
2018-03-17T08:34:46.390Z,21.29
2018-03-17T08:35:55.582Z,21.32
2018-03-17T08:37:04.761Z,21.35
2018-03-17T08:38:13.691Z,21.43
2018-03-17T08:39:23.212Z,21.42
2018-03-17T08:40:32.426Z,21.44
2018-03-17T08:41:41.383Z,21.43
2018-03-17T08:42:50.306Z,21.44
2018-03-17T08:43:59.213Z,21.5
2018-03-17T08:45:08.681Z,21.61
2018-03-17T08:46:17.330Z,21.56
2018-03-17T08:47:26.250Z,21.58
2018-03-17T08:48:35.712Z,21.59
2018-03-17T08:49:45.174Z,21.56
2018-03-17T08:50:53.839Z,21.62
2018-03-17T08:52:03.008Z,21.65
2018-03-17T08:53:12.256Z,21.64
2018-03-17T08:54:21.748Z,21.65
2018-03-17T08:55:31.167Z,21.64
2018-03-17T08:56:39.878Z,21.62
2018-03-17T08:57:48.796Z,21.61
2018-03-17T08:58:57.768Z,21.69
2018-03-17T09:00:07.237Z,21.67
2018-03-17T09:01:16.934Z,21.68
2018-03-17T09:02:26.357Z,21.65
2018-03-17T09:03:35.527Z,21.67
2018-03-17T09:04:44.983Z,21.77
2018-03-17T09:05:54.414Z,21.71
2018-03-17T09:07:03.320Z,21.79
2018-03-17T09:08:12.483Z,21.79
2018-03-17T09:09:21.149Z,21.75
2018-03-17T09:10:30.596Z,21.82
2018-03-17T09:11:39.755Z,21.82
2018-03-17T09:12:48.405Z,21.86
2018-03-17T09:13:57.076Z,21.77
2018-03-17T09:15:05.744Z,21.71
2018-03-17T09:16:14.952Z,21.91
2018-03-17T09:17:23.878Z,21.83
2018-03-17T09:18:33.303Z,21.84
2018-03-17T09:19:42.207Z,21.88
2018-03-17T09:20:51.667Z,21.98
2018-03-17T09:22:01.085Z,21.84
2018-03-17T09:23:10.238Z,21.88
2018-03-17T09:24:19.775Z,21.88
2018-03-17T09:25:28.654Z,22.03
2018-03-17T09:26:37.851Z,22.03
2018-03-17T09:27:46.508Z,21.96
2018-03-17T09:28:55.412Z,21.98
2018-03-17T09:30:04.860Z,21.99
2018-03-17T09:31:13.515Z,22.05
2018-03-17T09:32:22.427Z,22.07
2018-03-17T09:33:31.605Z,22.09
2018-03-17T09:34:40.541Z,22.18
2018-03-17T09:35:50.337Z,22.21
2018-03-17T09:36:59.511Z,22.2
2018-03-17T09:38:08.709Z,22.2
2018-03-17T09:39:17.897Z,22.25
2018-03-17T09:40:26.806Z,22.24
2018-03-17T09:41:35.999Z,22.3
2018-03-17T09:42:44.926Z,22.25
2018-03-17T09:43:54.404Z,22.33
2018-03-17T09:45:03.394Z,22.31
2018-03-17T09:46:12.305Z,22.35
2018-03-17T09:47:20.959Z,22.35
2018-03-17T09:48:29.867Z,22.35
2018-03-17T09:49:39.083Z,22.4
2018-03-17T09:50:48.017Z,22.46
2018-03-17T09:51:57.188Z,22.46
2018-03-17T09:53:06.968Z,22.49
2018-03-17T09:54:16.690Z,22.47
2018-03-17T09:55:25.923Z,22.6
2018-03-17T09:56:35.140Z,22.54
2018-03-17T09:57:43.792Z,22.62
2018-03-17T09:58:52.721Z,22.54
2018-03-17T10:00:02.643Z,22.61
2018-03-17T10:01:11.582Z,22.55
2018-03-17T10:02:20.517Z,22.55
2018-03-17T10:03:29.171Z,22.57
2018-03-17T10:04:38.607Z,22.6
2018-03-17T10:05:48.039Z,22.57
2018-03-17T10:06:57.492Z,22.58
2018-03-17T10:08:06.393Z,22.55
2018-03-17T10:09:15.350Z,22.6
2018-03-17T10:10:24.529Z,22.68
2018-03-17T10:11:33.710Z,22.64
2018-03-17T10:12:42.874Z,22.58
2018-03-17T10:13:51.597Z,22.58
2018-03-17T10:15:00.754Z,22.58
2018-03-17T10:16:10.189Z,22.58
2018-03-17T10:17:19.360Z,22.6
2018-03-17T10:18:28.612Z,22.46
2018-03-17T10:19:37.534Z,22.55
2018-03-17T10:20:46.198Z,22.4
2018-03-17T10:21:55.392Z,22.43
2018-03-17T10:23:04.578Z,22.47
2018-03-17T10:24:13.790Z,22.39
2018-03-17T10:25:22.949Z,22.39
2018-03-17T10:26:32.174Z,22.4
2018-03-17T10:27:41.399Z,22.35
2018-03-17T10:28:50.580Z,22.3
2018-03-17T10:29:59.495Z,22.25
2018-03-17T10:31:08.446Z,22.27
2018-03-17T10:32:17.887Z,22.2
2018-03-17T10:33:27.571Z,22.18
2018-03-17T10:34:36.747Z,22.18
2018-03-17T10:35:46.215Z,22.18
2018-03-17T10:36:55.426Z,22.05
2018-03-17T10:38:04.871Z,22
2018-03-17T10:39:13.787Z,21.99
2018-03-17T10:40:22.694Z,22
2018-03-17T10:41:31.345Z,22.02
2018-03-17T10:42:40.829Z,21.98
2018-03-17T10:43:50.271Z,21.91
2018-03-17T10:44:59.029Z,21.77
2018-03-17T10:46:08.454Z,21.74
2018-03-17T10:47:17.197Z,21.74
2018-03-17T10:48:26.631Z,21.77
2018-03-17T10:49:35.828Z,21.72
2018-03-17T10:50:44.895Z,21.64
2018-03-17T10:51:54.389Z,21.65
2018-03-17T10:53:03.591Z,21.64
2018-03-17T10:54:12.825Z,21.67
2018-03-17T10:55:22.061Z,21.56
2018-03-17T10:56:31.636Z,21.49
2018-03-17T10:57:40.818Z,21.58
2018-03-17T10:58:49.508Z,21.56
2018-03-17T10:59:58.731Z,21.58
2018-03-17T11:01:07.904Z,21.54
2018-03-17T11:02:17.101Z,21.54
2018-03-17T11:03:26.029Z,21.54
2018-03-17T11:04:34.996Z,21.61
2018-03-17T11:05:43.959Z,21.62
2018-03-17T11:06:52.881Z,21.65
2018-03-17T11:08:01.544Z,21.65
2018-03-17T11:09:11.044Z,21.62
2018-03-17T11:10:19.971Z,21.79
2018-03-17T11:11:28.913Z,21.75
2018-03-17T11:12:38.100Z,21.8
2018-03-17T11:13:47.848Z,21.77
2018-03-17T11:14:57.294Z,21.75
2018-03-17T11:16:06.475Z,21.84
2018-03-17T11:17:16.464Z,21.86
2018-03-17T11:18:25.462Z,21.79
2018-03-17T11:19:34.416Z,21.8
2018-03-17T11:20:43.355Z,21.79
2018-03-17T11:21:52.042Z,21.91
2018-03-17T11:23:01.130Z,21.88
2018-03-17T11:24:10.439Z,21.88
2018-03-17T11:25:19.627Z,21.98
2018-03-17T11:26:29.326Z,21.96
2018-03-17T11:27:37.987Z,21.9
2018-03-17T11:28:47.463Z,22
2018-03-17T11:29:56.378Z,21.96
2018-03-17T11:31:05.308Z,22.02
2018-03-17T11:32:14.570Z,22
2018-03-17T11:33:23.787Z,22.03
2018-03-17T11:34:32.722Z,22.14
2018-03-17T11:35:41.694Z,22.12
2018-03-17T11:36:50.678Z,22.07
2018-03-17T11:37:59.866Z,22.14
2018-03-17T11:39:09.105Z,22.1
2018-03-17T11:40:18.298Z,22.2
2018-03-17T11:41:27.548Z,22.15
2018-03-17T11:42:36.795Z,22.22
2018-03-17T11:43:46.011Z,22.2
2018-03-17T11:44:54.682Z,22.14
2018-03-17T11:46:03.644Z,22.24
2018-03-17T11:47:12.638Z,22.14
2018-03-17T11:48:21.972Z,22.22
2018-03-17T11:49:30.938Z,22.2
2018-03-17T11:50:40.271Z,22.2
2018-03-17T11:51:49.276Z,22.2
2018-03-17T11:52:57.976Z,22.18
2018-03-17T11:54:06.912Z,22.18
2018-03-17T11:55:15.651Z,22.25
2018-03-17T11:56:24.862Z,22.28
2018-03-17T11:57:34.068Z,22.24
2018-03-17T11:58:43.643Z,22.25
2018-03-17T11:59:52.814Z,22.3
2018-03-17T12:01:01.976Z,22.17
2018-03-17T12:02:11.163Z,22.22
2018-03-17T12:03:20.366Z,22.31
2018-03-17T12:04:29.653Z,22.25
2018-03-17T12:05:38.827Z,22.21
2018-03-17T12:06:47.495Z,22.22
2018-03-17T12:07:56.687Z,22.24
2018-03-17T12:09:05.327Z,22.27
2018-03-17T12:10:15.174Z,22.27
2018-03-17T12:11:23.880Z,22.31
2018-03-17T12:12:32.829Z,22.3
2018-03-17T12:13:41.756Z,22.31
2018-03-17T12:14:51.235Z,22.39
2018-03-17T12:16:00.434Z,22.37
2018-03-17T12:17:09.347Z,22.35
2018-03-17T12:18:18.260Z,22.42
2018-03-17T12:19:27.447Z,22.36
2018-03-17T12:20:37.182Z,22.45
2018-03-17T12:21:45.821Z,22.46
2018-03-17T12:22:55.562Z,22.46
2018-03-17T12:24:04.862Z,22.39
2018-03-17T12:25:13.800Z,22.39
2018-03-17T12:26:22.977Z,22.39
2018-03-17T12:27:31.945Z,22.35
2018-03-17T12:28:41.381Z,22.28
2018-03-17T12:29:50.902Z,22.25
2018-03-17T12:31:00.084Z,22.22
2018-03-17T12:32:08.998Z,22.25
2018-03-17T12:33:17.987Z,22.1
2018-03-17T12:34:26.895Z,22.2
2018-03-17T12:35:35.795Z,22.21
2018-03-17T12:36:44.951Z,22.18
2018-03-17T12:37:54.137Z,22.03
2018-03-17T12:39:03.332Z,22.05
2018-03-17T12:40:12.243Z,21.99
2018-03-17T12:41:20.908Z,21.96
2018-03-17T12:42:30.332Z,21.94
2018-03-17T12:43:40.037Z,22.02
2018-03-17T12:44:48.950Z,21.96
2018-03-17T12:45:57.651Z,21.98
2018-03-17T12:47:07.081Z,21.94
2018-03-17T12:48:16.873Z,21.79
2018-03-17T12:49:26.075Z,21.88
2018-03-17T12:50:35.766Z,21.82
2018-03-17T12:51:44.677Z,21.74
2018-03-17T12:52:53.354Z,21.74
2018-03-17T12:54:03.036Z,21.72
2018-03-17T12:55:12.545Z,21.65
2018-03-17T12:56:21.717Z,21.62
2018-03-17T12:57:30.379Z,21.62
2018-03-17T12:58:39.537Z,21.54
2018-03-17T12:59:48.714Z,21.53
2018-03-17T13:00:57.651Z,21.53
2018-03-17T13:02:06.825Z,21.49
2018-03-17T13:03:16.006Z,21.47
2018-03-17T13:04:24.662Z,21.52
2018-03-17T13:05:34.112Z,21.4
2018-03-17T13:06:43.022Z,21.42
2018-03-17T13:07:51.948Z,21.46
2018-03-17T13:09:01.396Z,21.47
2018-03-17T13:10:10.554Z,21.37
2018-03-17T13:11:19.732Z,21.34
2018-03-17T13:12:28.688Z,21.37
2018-03-17T13:13:37.587Z,21.35
2018-03-17T13:14:46.535Z,21.31
2018-03-17T13:15:55.448Z,21.29
2018-03-17T13:17:04.394Z,21.29
2018-03-17T13:18:13.585Z,21.27
2018-03-17T13:19:22.531Z,21.24
2018-03-17T13:20:32.096Z,21.22
2018-03-17T13:21:41.539Z,21.21
2018-03-17T13:22:50.992Z,21.17
2018-03-17T13:23:59.903Z,21.14
2018-03-17T13:25:09.391Z,21.14
2018-03-17T13:26:18.830Z,21.12
2018-03-17T13:27:28.293Z,21.09
2018-03-17T13:28:37.732Z,21.07
2018-03-17T13:29:46.896Z,21.04
2018-03-17T13:30:56.086Z,21.07
2018-03-17T13:32:05.537Z,21.03
2018-03-17T13:33:14.516Z,21.04
2018-03-17T13:34:23.272Z,20.99
2018-03-17T13:35:32.764Z,21.03
2018-03-17T13:36:41.664Z,20.97
2018-03-17T13:37:50.360Z,20.94
2018-03-17T13:38:59.851Z,20.92
2018-03-17T13:40:08.812Z,20.95
2018-03-17T13:41:18.272Z,20.94
2018-03-17T13:42:27.710Z,20.92
2018-03-17T13:43:36.394Z,20.92
2018-03-17T13:44:45.375Z,20.87
2018-03-17T13:45:54.798Z,20.82
2018-03-17T13:47:03.970Z,20.82
2018-03-17T13:48:12.900Z,20.77
2018-03-17T13:49:21.839Z,20.79
2018-03-17T13:50:31.058Z,20.82
2018-03-17T13:51:40.486Z,20.79
2018-03-17T13:52:49.923Z,20.77
2018-03-17T13:53:58.883Z,20.79
2018-03-17T13:55:07.550Z,20.79
2018-03-17T13:56:16.712Z,20.79
2018-03-17T13:57:25.889Z,20.7
2018-03-17T13:58:35.373Z,20.74
2018-03-17T13:59:44.897Z,20.79
2018-03-17T14:00:53.557Z,20.7
2018-03-17T14:02:02.739Z,20.7
2018-03-17T14:03:11.670Z,20.74
2018-03-17T14:04:20.305Z,20.67
2018-03-17T14:05:28.962Z,20.66
2018-03-17T14:06:38.139Z,20.67
2018-03-17T14:07:47.083Z,20.76
2018-03-17T14:08:55.746Z,20.69
2018-03-17T14:10:04.429Z,20.7
2018-03-17T14:11:13.680Z,20.72
2018-03-17T14:12:22.590Z,20.69
2018-03-17T14:13:31.270Z,20.72
2018-03-17T14:14:40.179Z,20.76
2018-03-17T14:15:49.095Z,20.69
2018-03-17T14:16:58.028Z,20.72
2018-03-17T14:18:06.665Z,20.72
2018-03-17T14:19:15.616Z,20.72
2018-03-17T14:20:24.762Z,20.69
2018-03-17T14:21:34.196Z,20.73
2018-03-17T14:22:43.615Z,20.72
2018-03-17T14:23:52.589Z,20.8
2018-03-17T14:25:01.516Z,20.72
2018-03-17T14:26:10.426Z,20.69
2018-03-17T14:27:19.321Z,20.84
2018-03-17T14:28:28.254Z,20.77
2018-03-17T14:29:36.885Z,20.88
2018-03-17T14:30:45.782Z,20.8
2018-03-17T14:31:55.216Z,20.87
2018-03-17T14:33:03.873Z,20.84
2018-03-17T14:34:12.794Z,20.85
2018-03-17T14:35:21.464Z,20.91
2018-03-17T14:36:30.112Z,20.94
2018-03-17T14:37:39.536Z,20.95
2018-03-17T14:39:39.045Z,21.16
2018-03-17T14:40:48.303Z,21.29
2018-03-17T14:41:57.222Z,21.5
2018-03-17T14:43:07.018Z,21.52
2018-03-17T14:44:16.231Z,21.62
2018-03-17T14:45:25.234Z,21.71
2018-03-17T14:46:34.476Z,21.91
2018-03-17T14:47:43.706Z,22.02
2018-03-17T14:48:52.930Z,22.05
2018-03-17T14:50:02.425Z,22.2
2018-03-17T14:51:11.865Z,22.24
2018-03-17T14:52:21.230Z,22.25